AirNav   Pilot Hours Calculator
 
 1153 users online  

PA16 Shadyside Health Education & Research Corp Heliport
Pittsburgh, Pennsylvania, USA

GOING TO PITTSBURGH?


FAA INFORMATION EFFECTIVE 07 NOVEMBER 2019

Location

FAA Identifier: PA16
Lat/Long: 40-27-15.4400N 079-56-22.7800W
40-27.257333N 079-56.379667W
40.4542889,-79.9396611
(estimated)
Elevation: 1037 ft. / 316 m (estimated)
Variation: 08W (1990)
From city: 3 miles NE of PITTSBURGH, PA
Time zone: UTC -5 (UTC -4 during Daylight Saving Time)
Zip code: 15232

Heliport Operations

Heliport use: Private use, MEDICAL USE.
Activation date: 12/1992
Control tower: no
ARTCC: CLEVELAND CENTER
FSS: ALTOONA FLIGHT SERVICE STATION
Attendance: CONTINUOUS
Wind indicator: lighted
Segmented circle: no
Lights: FOR PERIMETER LGTS CALL 412-623-2990.

Heliport Communications

WX AWOS-A at 42PN (2.9 nm W): PHONE 412-442-2213
WX ASOS at AGC (6 nm S): PHONE 412-466-8968
WX ASOS at PIT (14 nm W): PHONE 412-472-0145
WX AWOS-3 at FWQ (15 nm S): 118.475 (724-379-5815)
WX AWOS-3PT at BTP (19 nm N): 121.450 (724-586-6434)

Nearby radio navigation aids

VOR radial/distance  VOR name  Freq  Var
AGCr033/11.5ALLEGHENY VOR/DME110.0009W
EWCr159/25.5ELLWOOD CITY VOR/DME115.8008W
HLGr075/31.0WHEELING VOR/DME112.2007W
IHDr323/39.2INDIAN HEAD VORTAC108.2006W

Heliport Services

Runway Information

Helipad H1

Dimensions: 48 x 48 ft. / 15 x 15 m
Surface: mats
ROOFTOP.
Runway edge lights: PERI
Latitude: 40-27.257333N
Longitude: 079-56.379667W
Elevation: 1037.0 ft.
Traffic pattern: leftleft

Heliport Ownership and Management from official FAA records

Ownership: Privately-owned
Owner: SHADYSIDE HOSPITAL
5230 CENTRE AVENUE
PITTSBURGH, PA 15232
Phone (412) 623-2990
Manager: HARVEY COLE
5230 CENTRE AVENUE
PITTSBURGH, PA 15232
Phone (412) 623-3091

Additional Remarks

FOR CD CTC PITTSBURGH APCH AT 412-472-5591

Instrument Procedures

There are no published instrument procedures at PA16.

Some nearby airports with instrument procedures:

KAGC - Allegheny County Airport (6 nm S)
G05 - Finleyville Airpark (13 nm S)
KPIT - Pittsburgh International Airport (14 nm W)
KFWQ - Rostraver Airport (15 nm S)
KBTP - Pittsburgh/Butler Regional Airport (19 nm N)
 
Loc | Ops | Rwys | IFR | FBO | Links
Com | Nav | Svcs | Stats | Notes
Area around PA16 (Shadyside Health Education & Research Corp Heliport)
 
Road maps at: MapQuest Bing Google
 
Aerial photo
No photo
 
Sectional chart

 
Airport distance calculator
Flying to Shadyside Health Education & Research Corp Heliport? Find the distance to fly.

From to PA16

Sunrise and sunset
Times for 15-Nov-2019
 Local
(UTC-5)
 Zulu
(UTC)
Morning civil twilight06:3811:38
Sunrise07:0712:07
Sunset17:0222:02
Evening civil twilight17:3122:31

Current date and time
Zulu (UTC)  15-Nov-2019 21:10:36
Local (UTC-5)  15-Nov-2019 16:10:36
 
METAR
KAGC 
6nm S 
152053Z 29005KT 10SM CLR 06/M04 A3024 RMK AO2 SLP258 T00611039 53006
KPIT 
15nm W 
152051Z 29008KT 10SM FEW040 06/M04 A3026 RMK AO2 SLP267 T00561044 53006
KP53 
15nm S 
152056Z AUTO 35015KT M03/M08 A3040 RMK AO1 SLP306 T10331083 51027
KBTP 
19nm N 
152056Z AUTO VRB03KT 10SM CLR 03/M03 A3028 RMK AO2 SLP274 T00281033 53010
TAF
KAGC 
6nm S 
151720Z 1518/1618 28005KT P6SM SKC FM160100 33003KT P6SM SCT070 FM160200 36006KT P6SM OVC030 FM160700 01003KT P6SM SCT060 FM161200 04004KT P6SM SCT180
KPIT 
15nm W 
151720Z 1518/1624 28005KT P6SM SCT250 FM152300 33004KT P6SM SCT180 FM160200 35004KT P6SM BKN025 FM160600 01004KT P6SM BKN060 FM161200 04005KT P6SM SCT200
NOTAMs
Click for the latest NOTAMs
NOTAMs are issued by the DoD/FAA and will open in a separate window not controlled by AirNav.

 

 
 

Would you like to see your business listed on this page?

 If your business provides an interesting product or service to pilots, flight crews, aircraft, or users of the Shadyside Health Education & Research Corp Heliport, you should consider listing it here.  To start the listing process, click on the button below
 
Add a business
 

Other Pages about Shadyside Health Education & Research Corp Heliport

Update a link
 
Copyright © AirNav, LLC. All rights reserved. Privacy Policy  Contact